Time;durP1;ratioP1;P1;durP2;ratioP2;P2;SDS_P1;SDS_P2;PMS_P1;PMS_P2;Temp;Humidity;BMP_temperature;BMP_pressure;BME280_temperature;BME280_humidity;BME280_pressure;Samples;Min_cycle;Max_cycle;Signal;HPM_P1;HPM_P2
2022/01/13 00:00:15;;;;;;;208.60;40.80;;;5.40;99.90;;;;;;5015027;28;20161;-92
2022/01/13 00:02:47;;;;;;;239.57;43.67;;;6.70;99.90;;;;;;5015832;28;20042;-91
2022/01/13 00:05:13;;;;;;;226.73;41.33;;;5.60;99.90;;;;;;5016655;28;20054;-92
2022/01/13 00:07:39;;;;;;;245.25;41.75;;;6.20;99.90;;;;;;5016763;28;20054;-93
2022/01/13 00:10:06;;;;;;;235.20;42.25;;;6.20;99.90;;;;;;5017960;28;20065;-94
2022/01/13 00:12:38;;;;;;;213.23;35.70;;;5.60;99.90;;;;;;5016356;28;20046;-92
2022/01/13 00:15:23;;;;;;;242.93;42.10;;;6.20;99.90;;;;;;5018558;28;20038;-92
2022/01/13 00:18:02;;;;;;;229.45;40.90;;;5.70;99.90;;;;;;5017666;28;20045;-92
2022/01/13 00:21:00;;;;;;;250.88;40.35;;;5.70;99.90;;;;;;5015932;28;20034;-92
2022/01/13 00:23:41;;;;;;;272.75;41.95;;;5.40;99.90;;;;;;5032000;28;20105;-92
2022/01/13 00:26:16;;;;;;;285.67;45.45;;;5.50;99.90;;;;;;5016694;28;20066;-92
2022/01/13 00:28:44;;;;;;;271.30;40.63;;;5.50;99.90;;;;;;5016409;28;20046;-92
2022/01/13 00:31:11;;;;;;;245.90;42.95;;;5.50;99.90;;;;;;5016972;28;20026;-93
2022/01/13 00:33:43;;;;;;;335.08;46.05;;;6.20;99.90;;;;;;5017099;28;20060;-92
2022/01/13 00:36:09;;;;;;;298.33;45.88;;;5.50;99.90;;;;;;5017376;28;20069;-92
2022/01/13 00:38:35;;;;;;;220.10;39.58;;;5.40;99.90;;;;;;5016381;28;20046;-92
2022/01/13 00:41:01;;;;;;;149.80;29.70;;;6.70;99.90;;;;;;5014554;28;20045;-92
2022/01/13 00:43:27;;;;;;;163.40;32.97;;;5.40;99.90;;;;;;5031792;28;20180;-92
2022/01/13 00:45:53;;;;;;;155.80;33.08;;;5.50;99.90;;;;;;5016187;28;20056;-92
2022/01/13 00:48:20;;;;;;;177.23;31.67;;;6.50;99.90;;;;;;5032581;28;20049;-93
2022/01/13 00:50:46;;;;;;;209.23;34.28;;;5.40;99.90;;;;;;5030930;28;20042;-90
2022/01/13 00:53:12;;;;;;;205.50;34.60;;;5.40;99.90;;;;;;5014237;28;20061;-90
2022/01/13 00:55:48;;;;;;;196.50;35.47;;;5.40;99.90;;;;;;5013575;28;20034;-90
2022/01/13 00:58:15;;;;;;;194.60;34.97;;;5.40;99.90;;;;;;5014122;28;20050;-91
2022/01/13 01:00:42;;;;;;;208.35;35.97;;;5.40;99.90;;;;;;5029966;28;20086;-92
2022/01/13 01:03:08;;;;;;;202.65;35.13;;;5.30;99.90;;;;;;5015234;28;20041;-91
2022/01/13 01:05:35;;;;;;;204.63;35.05;;;5.30;99.90;;;;;;5034719;28;20077;-90
2022/01/13 01:08:03;;;;;;;208.93;33.83;;;5.30;99.90;;;;;;5018986;28;20033;-91
2022/01/13 01:10:29;;;;;;;171.02;29.63;;;6.10;99.90;;;;;;5015929;28;20053;-90
2022/01/13 01:12:54;;;;;;;182.55;33.75;;;5.30;99.90;;;;;;5015896;28;20060;-91
2022/01/13 01:15:20;;;;;;;186.15;34.13;;;6.00;99.90;;;;;;5032115;28;20041;-91
2022/01/13 01:17:52;;;;;;;140.05;27.60;;;6.20;99.90;;;;;;5015309;28;20037;-91
2022/01/13 01:20:19;;;;;;;154.90;30.83;;;5.20;99.90;;;;;;5013425;28;20052;-91
2022/01/13 01:25:43;;;;;;;145.63;29.75;;;5.20;99.90;;;;;;5030816;28;20120;-92
2022/01/13 01:28:13;;;;;;;131.50;29.38;;;6.30;99.90;;;;;;5030759;28;20030;-91
2022/01/13 01:30:52;;;;;;;116.72;25.45;;;5.00;99.90;;;;;;5015440;28;20057;-91
2022/01/13 01:33:55;;;;;;;120.93;26.00;;;5.20;99.90;;;;;;5028785;28;20045;-93
2022/01/13 01:36:24;;;;;;;104.57;24.88;;;6.20;99.90;;;;;;5015836;28;20053;-92
2022/01/13 01:38:53;;;;;;;118.90;25.98;;;5.20;99.90;;;;;;5015262;28;20050;-91
2022/01/13 01:41:18;;;;;;;127.05;27.23;;;5.20;99.90;;;;;;5018012;28;20054;-92
2022/01/13 01:44:34;;;;;;;104.50;23.88;;;5.90;99.90;;;;;;5017567;28;20069;-91
2022/01/13 01:47:01;;;;;;;98.90;23.70;;;5.10;99.90;;;;;;5010514;28;20050;-91
2022/01/13 01:49:31;;;;;;;109.90;25.73;;;5.10;99.90;;;;;;5016330;28;20045;-92
2022/01/13 01:51:59;;;;;;;125.88;28.42;;;4.50;99.90;;;;;;5016178;28;20143;-91
2022/01/13 01:54:37;;;;;;;137.57;27.05;;;5.00;99.90;;;;;;5017548;28;20052;-91
2022/01/13 01:57:04;;;;;;;108.90;23.55;;;5.90;99.90;;;;;;5017111;28;20041;-92
2022/01/13 01:59:33;;;;;;;118.78;25.70;;;4.00;99.90;;;;;;5017868;28;20045;-91
2022/01/13 02:03:09;;;;;;;123.93;23.90;;;5.50;99.90;;;;;;5033880;28;20081;-91
2022/01/13 02:05:50;;;;;;;107.03;22.17;;;5.10;99.90;;;;;;5042880;28;20069;-91
2022/01/13 02:08:16;;;;;;;100.97;24.27;;;6.20;99.90;;;;;;5015743;28;20030;-91
2022/01/13 02:10:45;;;;;;;125.68;25.83;;;4.80;99.90;;;;;;5016094;28;20037;-92
2022/01/13 02:13:14;;;;;;;137.45;26.30;;;4.50;99.90;;;;;;5016918;28;20026;-92
2022/01/13 02:16:35;;;;;;;103.55;23.17;;;5.50;99.90;;;;;;5032986;28;20021;-91
2022/01/13 02:18:35;;;;;;;106.97;25.08;;;5.80;99.90;;;;;;5030705;28;20061;-91
2022/01/13 02:21:01;;;;;;;103.43;25.92;;;6.40;99.90;;;;;;5018124;28;20550;-91
2022/01/13 02:23:35;;;;;;;97.20;26.00;;;6.20;99.90;;;;;;5016630;28;20037;-91
2022/01/13 02:26:03;;;;;;;95.90;25.40;;;5.10;99.90;;;;;;5033502;28;20052;-91
2022/01/13 02:28:29;;;;;;;102.78;24.77;;;6.10;99.90;;;;;;5017191;28;20034;-91
2022/01/13 02:30:55;;;;;;;94.72;23.48;;;5.20;99.90;;;;;;5016427;28;20045;-91
2022/01/13 02:33:21;;;;;;;103.78;25.88;;;5.30;99.90;;;;;;5016598;28;20068;-91
2022/01/13 02:35:47;;;;;;;92.10;25.95;;;5.30;99.90;;;;;;5016404;28;20038;-92
2022/01/13 02:38:13;;;;;;;105.90;25.83;;;5.60;99.90;;;;;;5016193;28;20041;-91
2022/01/13 02:40:39;;;;;;;90.00;23.38;;;4.10;99.90;;;;;;5032349;28;20058;-92
2022/01/13 02:43:06;;;;;;;109.18;26.33;;;5.30;99.90;;;;;;5015015;28;20038;-91
2022/01/13 02:45:36;;;;;;;103.90;24.42;;;5.40;99.90;;;;;;5015139;28;20117;-93
2022/01/13 02:48:27;;;;;;;94.15;24.92;;;5.30;99.90;;;;;;5014346;28;20041;-92
2022/01/13 02:50:57;;;;;;;101.78;25.58;;;6.20;99.90;;;;;;5015625;28;20054;-92
2022/01/13 02:53:23;;;;;;;89.85;25.35;;;6.40;99.90;;;;;;5013183;28;20512;-92
2022/01/13 02:55:54;;;;;;;83.00;23.67;;;6.40;99.90;;;;;;5011087;28;20041;-92
2022/01/13 02:58:20;;;;;;;81.78;22.27;;;6.10;99.90;;;;;;5010406;28;20053;-92
2022/01/13 03:00:46;;;;;;;68.70;21.65;;;6.00;99.90;;;;;;5013222;28;20057;-92
2022/01/13 03:03:12;;;;;;;72.05;22.10;;;6.50;99.90;;;;;;5027164;28;20045;-93
2022/01/13 03:05:39;;;;;;;85.00;24.27;;;5.50;99.90;;;;;;5013451;28;20037;-91
2022/01/13 03:08:06;;;;;;;86.07;26.35;;;6.00;99.90;;;;;;5014162;28;20081;-92
2022/01/13 03:10:32;;;;;;;69.78;21.65;;;5.10;99.90;;;;;;5013680;28;20058;-92
2022/01/13 03:12:59;;;;;;;86.22;24.27;;;5.50;99.90;;;;;;5014221;28;20042;-92
2022/01/13 03:15:25;;;;;;;86.65;24.65;;;5.50;99.90;;;;;;5013060;28;20109;-92
2022/01/13 03:17:51;;;;;;;91.78;24.55;;;6.10;99.90;;;;;;5014885;28;20049;-92
2022/01/13 03:20:18;;;;;;;100.45;25.15;;;6.30;99.90;;;;;;5017364;28;20038;-91
2022/01/13 03:22:44;;;;;;;101.40;25.67;;;5.90;99.90;;;;;;5015809;28;20788;-93
2022/01/13 03:25:12;;;;;;;116.32;26.70;;;5.30;99.90;;;;;;5030103;28;20065;-92
2022/01/13 03:27:40;;;;;;;108.25;27.42;;;5.40;99.90;;;;;;5012215;28;20092;-92
2022/01/13 03:30:08;;;;;;;101.50;23.58;;;6.50;99.90;;;;;;5013956;28;20050;-92
2022/01/13 03:32:38;;;;;;;129.93;29.08;;;5.50;99.90;;;;;;5012036;28;20066;-92
2022/01/13 03:35:07;;;;;;;93.10;21.83;;;5.40;99.90;;;;;;5013429;28;20041;-93
2022/01/13 03:37:33;;;;;;;143.45;26.73;;;5.40;99.90;;;;;;5014920;28;20050;-92
2022/01/13 03:39:59;;;;;;;122.10;27.63;;;5.30;99.90;;;;;;5015449;28;20046;-92
2022/01/13 03:42:25;;;;;;;122.55;25.00;;;5.50;99.90;;;;;;5015782;28;20038;-92
2022/01/13 03:44:51;;;;;;;122.97;25.40;;;5.30;99.90;;;;;;5016110;28;20045;-91
2022/01/13 03:47:18;;;;;;;140.63;25.30;;;5.30;99.90;;;;;;5019493;28;20053;-93
2022/01/13 03:49:43;;;;;;;134.10;25.92;;;5.30;99.90;;;;;;5013873;28;20046;-93
2022/01/13 03:52:12;;;;;;;141.57;25.52;;;5.20;99.90;;;;;;5014281;28;20080;-91
2022/01/13 03:54:39;;;;;;;146.10;25.05;;;4.90;99.90;;;;;;5014938;28;20045;-92
2022/01/13 03:57:55;;;;;;;180.70;29.55;;;6.10;99.90;;;;;;5017301;28;20053;-92
2022/01/13 04:00:55;;;;;;;182.93;29.00;;;4.10;99.90;;;;;;5017120;28;20064;-92
2022/01/13 04:03:22;;;;;;;146.55;25.25;;;5.20;99.90;;;;;;5032004;28;20213;-92
2022/01/13 04:06:11;;;;;;;149.93;25.25;;;4.20;99.90;;;;;;5031586;28;20050;-93
2022/01/13 04:08:38;;;;;;;157.68;26.55;;;5.20;99.90;;;;;;5014502;28;20026;-92
2022/01/13 04:11:04;;;;;;;180.77;27.92;;;6.00;99.90;;;;;;5016373;28;20132;-92
2022/01/13 04:13:46;;;;;;;157.82;25.13;;;5.20;99.90;;;;;;5012900;28;20060;-92
2022/01/13 04:16:20;;;;;;;165.25;27.98;;;6.50;99.90;;;;;;5017097;28;20105;-91
2022/01/13 04:18:53;;;;;;;194.80;29.05;;;5.10;99.90;;;;;;5018276;28;20054;-92
2022/01/13 04:21:20;;;;;;;150.88;26.38;;;5.20;99.90;;;;;;5015542;28;20054;-91
2022/01/13 04:23:46;;;;;;;189.18;27.88;;;5.20;99.90;;;;;;5012808;28;20522;-91
2022/01/13 04:26:17;;;;;;;155.50;26.92;;;5.20;99.90;;;;;;5011550;28;20141;-92
2022/01/13 04:28:43;;;;;;;178.80;29.10;;;5.20;99.90;;;;;;5013616;28;20049;-92
2022/01/13 04:31:09;;;;;;;143.88;25.10;;;5.20;99.90;;;;;;5015620;28;20041;-93
2022/01/13 04:33:36;;;;;;;161.88;25.02;;;4.80;99.90;;;;;;5013742;28;20109;-91
2022/01/13 04:36:04;;;;;;;137.30;24.85;;;5.70;99.90;;;;;;5027789;28;20053;-92
2022/01/13 04:38:30;;;;;;;136.70;23.55;;;5.10;99.90;;;;;;5029239;28;20050;-91
2022/01/13 04:40:59;;;;;;;133.57;23.42;;;5.70;99.90;;;;;;5009535;28;20049;-92
2022/01/13 04:43:26;;;;;;;160.35;23.60;;;5.30;99.90;;;;;;5007874;28;20053;-92
2022/01/13 04:45:53;;;;;;;137.55;22.08;;;5.20;99.90;;;;;;5011020;28;20050;-91
2022/01/13 04:48:19;;;;;;;134.10;21.58;;;6.00;99.90;;;;;;5014355;28;20042;-91
2022/01/13 04:50:45;;;;;;;197.30;28.48;;;5.20;99.90;;;;;;5016732;28;20084;-94
2022/01/13 04:53:12;;;;;;;142.98;23.67;;;6.00;99.90;;;;;;5008858;28;20049;-91
2022/01/13 04:55:38;;;;;;;143.18;24.45;;;5.10;99.90;;;;;;5010105;28;20081;-92
2022/01/13 04:58:09;;;;;;;160.38;25.70;;;5.10;99.90;;;;;;5011934;28;20042;-92
2022/01/13 05:00:34;;;;;;;161.93;27.02;;;5.10;99.90;;;;;;5011670;28;20145;-92
2022/01/13 05:03:01;;;;;;;171.20;25.00;;;5.10;99.90;;;;;;5012406;28;20049;-91
2022/01/13 05:05:28;;;;;;;175.38;27.63;;;5.20;99.90;;;;;;5015559;28;20042;-92
2022/01/13 05:07:57;;;;;;;163.00;24.55;;;4.10;99.90;;;;;;5030242;28;20101;-91
2022/01/13 05:10:23;;;;;;;134.18;20.25;;;5.20;99.90;;;;;;5013799;28;20049;-93
2022/01/13 05:12:56;;;;;;;146.50;21.58;;;6.50;99.90;;;;;;5014852;28;20053;-91
2022/01/13 05:15:26;;;;;;;164.90;25.52;;;5.40;99.90;;;;;;5015125;28;20034;-92
2022/01/13 05:20:28;;;;;;;135.20;22.80;;;4.90;99.90;;;;;;5030799;28;20034;-92
2022/01/13 05:22:55;;;;;;;182.80;29.08;;;6.00;99.90;;;;;;5011584;28;20053;-90
2022/01/13 05:25:21;;;;;;;165.75;24.55;;;5.50;99.90;;;;;;5030290;28;20053;-90
2022/01/13 05:27:47;;;;;;;125.07;22.10;;;5.10;99.90;;;;;;5015523;28;20064;-91
2022/01/13 05:30:15;;;;;;;152.23;24.88;;;4.60;99.90;;;;;;5014349;28;20077;-91
2022/01/13 05:32:47;;;;;;;137.45;23.00;;;5.00;99.90;;;;;;5017769;28;20132;-91
2022/01/13 05:35:15;;;;;;;170.85;27.23;;;4.00;99.90;;;;;;5015282;28;20050;-92
2022/01/13 05:37:45;;;;;;;140.35;25.80;;;4.80;99.90;;;;;;5028837;28;20049;-92
2022/01/13 05:40:12;;;;;;;184.50;28.55;;;5.20;99.90;;;;;;5013846;28;20049;-91
2022/01/13 05:42:39;;;;;;;118.00;19.85;;;4.20;99.90;;;;;;5015159;28;20084;-91
2022/01/13 05:45:15;;;;;;;176.90;28.42;;;6.30;99.90;;;;;;5017322;28;20049;-91
2022/01/13 05:47:48;;;;;;;155.82;26.77;;;5.10;99.90;;;;;;5014016;28;20041;-92
2022/01/13 05:50:15;;;;;;;178.98;28.45;;;5.40;99.90;;;;;;5015805;28;20084;-91
2022/01/13 05:52:41;;;;;;;177.18;26.73;;;6.20;99.90;;;;;;5029564;28;20052;-92
2022/01/13 05:55:09;;;;;;;185.43;29.77;;;4.50;99.90;;;;;;5016696;28;20050;-90
2022/01/13 05:57:38;;;;;;;186.65;29.33;;;4.60;99.90;;;;;;5014377;28;20049;-91
2022/01/13 06:00:09;;;;;;;174.02;27.90;;;5.20;99.90;;;;;;5015705;28;20049;-93
2022/01/13 06:02:35;;;;;;;215.10;32.17;;;5.20;99.90;;;;;;5015429;28;20046;-92
2022/01/13 06:05:01;;;;;;;190.60;31.52;;;5.70;99.90;;;;;;5016281;28;20038;-92
2022/01/13 06:07:28;;;;;;;201.52;29.58;;;5.10;99.90;;;;;;5015158;28;20042;-93
2022/01/13 06:09:54;;;;;;;198.52;28.65;;;5.30;99.90;;;;;;5015189;28;20032;-91
2022/01/13 06:12:31;;;;;;;213.45;32.40;;;5.20;99.90;;;;;;5016826;28;20037;-91
2022/01/13 06:15:02;;;;;;;146.90;22.58;;;5.20;99.90;;;;;;5016200;28;20042;-92
2022/01/13 06:17:29;;;;;;;185.05;29.50;;;5.20;99.90;;;;;;5014169;28;20061;-92
2022/01/13 06:19:56;;;;;;;235.95;33.10;;;5.30;99.90;;;;;;5012819;28;20041;-91
2022/01/13 06:22:24;;;;;;;243.23;33.50;;;5.30;99.90;;;;;;5029803;28;20133;-92
2022/01/13 06:24:53;;;;;;;190.95;28.73;;;6.10;99.90;;;;;;5014686;28;20046;-92
2022/01/13 06:27:22;;;;;;;222.43;32.35;;;6.20;99.90;;;;;;5026674;28;20058;-93
2022/01/13 06:29:52;;;;;;;242.48;34.85;;;5.80;99.90;;;;;;5010432;28;20512;-91
2022/01/13 06:32:19;;;;;;;233.63;35.28;;;5.90;99.90;;;;;;5009382;28;20607;-91
2022/01/13 06:34:46;;;;;;;188.75;29.02;;;5.40;99.90;;;;;;5008535;28;20048;-92
2022/01/13 06:37:14;;;;;;;175.85;30.85;;;5.30;99.90;;;;;;5011392;28;20037;-91
2022/01/13 06:39:43;;;;;;;153.07;24.90;;;5.80;99.90;;;;;;5012786;28;20038;-91
2022/01/13 06:42:09;;;;;;;219.68;35.67;;;6.50;99.90;;;;;;5013024;28;20057;-91
2022/01/13 06:44:36;;;;;;;195.52;32.80;;;5.30;99.90;;;;;;5010966;28;20044;-92
2022/01/13 06:47:08;;;;;;;195.45;32.47;;;5.90;99.90;;;;;;5012450;28;20077;-90
2022/01/13 06:49:34;;;;;;;209.68;31.83;;;5.40;99.90;;;;;;5014802;28;20073;-92
2022/01/13 06:52:00;;;;;;;183.45;30.55;;;5.40;99.90;;;;;;5010047;28;20084;-92
2022/01/13 06:54:25;;;;;;;185.65;30.40;;;5.20;99.90;;;;;;5009650;28;20050;-92
2022/01/13 06:56:52;;;;;;;199.77;32.47;;;5.10;99.90;;;;;;5010447;28;20155;-92
2022/01/13 07:03:03;;;;;;;185.30;28.25;;;4.40;99.90;;;;;;5027859;28;20037;-92
2022/01/13 07:05:29;;;;;;;161.45;27.20;;;5.60;99.90;;;;;;5009628;28;20134;-91
2022/01/13 07:07:55;;;;;;;219.73;32.10;;;5.40;99.90;;;;;;5009327;28;20054;-92
2022/01/13 07:10:21;;;;;;;146.25;26.77;;;5.50;99.90;;;;;;5011144;28;20074;-92
2022/01/13 07:12:47;;;;;;;242.80;35.17;;;5.50;99.90;;;;;;5012192;28;20137;-90
2022/01/13 07:15:13;;;;;;;254.43;34.35;;;5.50;99.90;;;;;;5009289;28;20147;-91
2022/01/13 07:17:41;;;;;;;206.60;31.70;;;5.50;99.90;;;;;;5010299;28;20048;-91
2022/01/13 07:20:09;;;;;;;178.05;30.13;;;5.50;99.90;;;;;;5008928;28;20073;-90
2022/01/13 07:22:39;;;;;;;177.77;28.48;;;5.50;99.90;;;;;;5012288;28;20128;-90
2022/01/13 07:25:07;;;;;;;174.57;28.70;;;6.30;99.90;;;;;;5011178;28;20054;-91
2022/01/13 07:27:33;;;;;;;210.43;35.92;;;5.50;99.90;;;;;;5006843;28;20050;-88
2022/01/13 07:29:59;;;;;;;211.18;31.10;;;5.50;99.90;;;;;;5006657;28;20120;-88
2022/01/13 07:32:25;;;;;;;217.27;31.42;;;5.80;99.90;;;;;;5023931;28;20068;-88
2022/01/13 07:34:51;;;;;;;165.77;28.02;;;6.60;99.90;;;;;;5007942;28;20127;-89
2022/01/13 07:37:24;;;;;;;156.90;27.02;;;6.40;99.90;;;;;;5021831;28;20073;-88
2022/01/13 07:39:53;;;;;;;163.00;26.88;;;5.20;99.90;;;;;;5005370;28;20428;-88
2022/01/13 07:42:19;;;;;;;177.60;27.77;;;5.40;99.90;;;;;;5006504;28;20116;-88
2022/01/13 07:44:48;;;;;;;179.10;29.80;;;5.80;99.90;;;;;;5007171;28;20022;-88
2022/01/13 07:47:15;;;;;;;143.57;25.27;;;6.30;99.90;;;;;;5023527;28;20045;-88
2022/01/13 07:49:41;;;;;;;177.10;28.95;;;5.40;99.90;;;;;;5021873;28;20049;-88
2022/01/13 07:52:10;;;;;;;156.68;24.35;;;5.40;99.90;;;;;;5002192;28;20069;-88
2022/01/13 07:54:39;;;;;;;131.88;25.30;;;5.50;99.90;;;;;;5004281;28;20559;-89
2022/01/13 07:57:17;;;;;;;138.57;25.08;;;5.00;99.90;;;;;;5004162;28;20042;-89
2022/01/13 08:00:01;;;;;;;165.23;26.33;;;6.40;99.90;;;;;;5016996;28;20042;-88
2022/01/13 08:02:27;;;;;;;173.68;28.42;;;6.50;99.90;;;;;;5018824;28;20063;-89
2022/01/13 08:04:53;;;;;;;151.60;24.52;;;5.60;99.90;;;;;;4999898;28;20400;-88
2022/01/13 08:07:21;;;;;;;168.27;28.58;;;6.00;99.90;;;;;;4998790;28;20046;-89
2022/01/13 08:09:46;;;;;;;157.95;26.67;;;5.40;99.90;;;;;;5015361;28;20168;-88
2022/01/13 08:12:12;;;;;;;130.57;25.77;;;6.00;99.90;;;;;;4998559;28;20102;-89
2022/01/13 08:14:40;;;;;;;140.93;24.02;;;6.10;99.90;;;;;;5014811;28;20042;-89
2022/01/13 08:17:08;;;;;;;170.20;29.67;;;5.40;99.90;;;;;;5014811;28;20056;-88
2022/01/13 08:19:46;;;;;;;205.05;33.25;;;5.50;99.90;;;;;;4999491;28;20652;-88
2022/01/13 08:22:15;;;;;;;164.98;28.45;;;6.30;99.90;;;;;;4999153;28;20046;-88
2022/01/13 08:24:42;;;;;;;199.57;32.97;;;4.70;99.90;;;;;;5013923;28;20140;-89
2022/01/13 08:27:08;;;;;;;158.70;28.90;;;6.50;99.90;;;;;;4997694;28;20153;-88
2022/01/13 08:29:34;;;;;;;148.88;27.70;;;4.80;99.90;;;;;;4998304;28;20163;-88
2022/01/13 08:32:00;;;;;;;173.15;32.45;;;6.70;99.90;;;;;;5014575;28;20451;-89
2022/01/13 08:34:25;;;;;;;168.10;30.98;;;5.70;99.90;;;;;;4998928;28;20054;-88
2022/01/13 08:36:51;;;;;;;161.13;31.13;;;6.10;99.90;;;;;;4998503;28;20042;-89
2022/01/13 08:39:17;;;;;;;136.15;26.58;;;5.80;99.90;;;;;;4998399;28;20050;-88
2022/01/13 08:41:46;;;;;;;105.05;26.10;;;5.10;99.90;;;;;;5014927;28;20050;-89
2022/01/13 08:44:12;;;;;;;140.38;28.20;;;6.40;99.90;;;;;;4998655;28;20696;-89
2022/01/13 08:46:39;;;;;;;144.65;28.92;;;6.00;99.90;;;;;;5014626;28;20042;-88
2022/01/13 08:49:05;;;;;;;164.00;30.42;;;5.30;99.90;;;;;;5015502;28;20042;-88
2022/01/13 08:51:31;;;;;;;153.70;27.45;;;5.90;99.90;;;;;;5014834;28;20561;-88
2022/01/13 08:53:58;;;;;;;147.88;27.95;;;6.70;99.90;;;;;;5013416;28;20057;-89
2022/01/13 08:56:24;;;;;;;160.98;32.15;;;6.50;99.90;;;;;;5013461;28;20135;-88
2022/01/13 08:58:52;;;;;;;162.82;31.88;;;6.20;99.90;;;;;;5013097;28;20400;-88
2022/01/13 09:01:18;;;;;;;137.43;29.52;;;6.50;99.90;;;;;;5012726;28;20042;-88
2022/01/13 09:03:44;;;;;;;140.63;30.48;;;5.90;99.90;;;;;;4996956;28;20140;-88
2022/01/13 09:06:10;;;;;;;148.13;30.80;;;6.50;99.90;;;;;;4996899;28;20072;-88
2022/01/13 09:08:35;;;;;;;141.90;31.48;;;5.80;99.90;;;;;;4996989;28;20046;-88
2022/01/13 09:11:02;;;;;;;133.32;28.13;;;5.90;99.90;;;;;;4997436;28;20373;-89
2022/01/13 09:13:30;;;;;;;132.70;30.48;;;6.00;99.90;;;;;;5014243;28;20050;-91
2022/01/13 09:15:59;;;;;;;130.20;26.73;;;6.00;99.90;;;;;;4997806;28;20042;-91
2022/01/13 09:18:47;;;;;;;130.40;28.08;;;6.10;99.90;;;;;;5014628;28;20417;-90
2022/01/13 09:21:37;;;;;;;145.02;30.52;;;6.10;99.90;;;;;;5015736;28;20049;-90
2022/01/13 09:25:02;;;;;;;128.13;27.73;;;6.10;99.90;;;;;;4939350;29;20070;-91
2022/01/13 09:27:28;;;;;;;137.98;29.05;;;6.10;99.90;;;;;;4863467;29;20394;-90
2022/01/13 09:29:54;;;;;;;164.60;33.85;;;7.40;99.90;;;;;;4896158;29;20163;-91
2022/01/13 09:32:22;;;;;;;186.73;34.10;;;6.70;99.90;;;;;;4937040;28;20050;-90
2022/01/13 09:34:54;;;;;;;179.98;32.33;;;6.10;99.90;;;;;;4998199;28;20045;-90
2022/01/13 09:37:20;;;;;;;185.15;34.58;;;6.10;99.90;;;;;;4997257;28;20056;-91
2022/01/13 09:39:45;;;;;;;145.48;32.15;;;6.30;99.90;;;;;;4997658;28;20096;-90
2022/01/13 09:42:12;;;;;;;159.15;31.92;;;6.40;99.90;;;;;;5014791;28;20073;-91
2022/01/13 09:44:38;;;;;;;158.40;29.35;;;6.10;99.90;;;;;;4998847;28;20049;-90
2022/01/13 09:47:06;;;;;;;160.45;33.67;;;7.00;99.90;;;;;;4998899;28;20629;-90
2022/01/13 09:49:32;;;;;;;165.88;37.00;;;6.20;99.90;;;;;;5014996;28;20038;-91
2022/01/13 09:51:59;;;;;;;156.55;29.55;;;5.60;99.90;;;;;;4999087;28;20042;-91
2022/01/13 09:54:27;;;;;;;130.65;28.70;;;6.20;99.90;;;;;;5016455;28;20060;-91
2022/01/13 09:56:53;;;;;;;127.22;26.45;;;6.30;99.90;;;;;;4997693;28;20054;-91
2022/01/13 09:59:20;;;;;;;176.05;35.60;;;7.60;99.90;;;;;;4998341;28;20049;-91
2022/01/13 10:01:46;;;;;;;129.27;28.70;;;6.10;99.90;;;;;;4998221;28;20080;-91
2022/01/13 10:04:15;;;;;;;141.85;31.55;;;6.90;99.90;;;;;;4999828;28;20053;-91
2022/01/13 10:06:47;;;;;;;175.68;33.85;;;6.60;99.90;;;;;;5001722;28;20045;-91
2022/01/13 10:09:13;;;;;;;169.10;33.72;;;6.30;99.90;;;;;;5001503;28;20046;-91
2022/01/13 10:11:54;;;;;;;171.43;35.65;;;6.20;99.90;;;;;;5016937;28;20054;-91
2022/01/13 10:16:56;;;;;;;134.00;30.67;;;6.50;99.90;;;;;;5017854;28;20050;-91
2022/01/13 10:19:36;;;;;;;174.02;32.60;;;6.40;99.90;;;;;;4998198;28;20068;-91
2022/01/13 10:22:05;;;;;;;118.05;29.70;;;7.00;99.90;;;;;;4998583;28;20463;-91
2022/01/13 10:24:33;;;;;;;151.68;30.23;;;6.30;99.90;;;;;;5014878;28;20050;-91
2022/01/13 10:27:11;;;;;;;161.52;33.00;;;6.20;99.90;;;;;;4998465;28;20053;-90
2022/01/13 10:30:04;;;;;;;133.23;26.88;;;6.40;99.90;;;;;;4999184;28;20085;-91
2022/01/13 10:32:41;;;;;;;133.73;28.10;;;6.40;99.90;;;;;;4999187;28;20563;-91
2022/01/13 10:35:08;;;;;;;;;;;6.40;99.90;;;;;;4997993;28;20069;-91
2022/01/13 10:37:36;;;;;;;136.20;28.63;;;7.70;99.90;;;;;;4998443;28;20018;-91
2022/01/13 10:40:08;;;;;;;126.60;27.27;;;6.90;99.90;;;;;;4997308;28;20696;-91
2022/01/13 10:45:12;;;;;;;141.98;28.70;;;7.50;99.90;;;;;;5013631;28;20572;-92
2022/01/13 10:47:40;;;;;;;125.50;28.38;;;7.50;99.90;;;;;;4998059;28;20071;-92
2022/01/13 10:50:09;;;;;;;111.88;25.60;;;6.70;99.90;;;;;;4999637;28;20052;-92
2022/01/13 10:52:36;;;;;;;66.53;20.10;;;6.50;99.90;;;;;;5014678;28;20057;-92
2022/01/13 10:55:12;;;;;;;100.45;25.88;;;7.00;99.90;;;;;;4996099;28;20053;-92
2022/01/13 10:57:43;;;;;;;115.22;27.77;;;7.40;99.90;;;;;;5013297;28;20144;-93
2022/01/13 11:00:22;;;;;;;136.70;31.90;;;6.80;99.90;;;;;;5000062;28;20069;-92
2022/01/13 11:03:18;;;;;;;117.43;28.35;;;6.40;99.90;;;;;;5000923;28;20050;-92
2022/01/13 11:06:00;;;;;;;110.45;26.75;;;6.50;99.90;;;;;;5000309;28;20113;-92
2022/01/13 11:08:30;;;;;;;124.00;26.55;;;6.00;99.90;;;;;;4999530;28;20135;-91
2022/01/13 11:11:02;;;;;;;98.00;27.50;;;6.50;99.90;;;;;;5014008;28;20110;-90
2022/01/13 11:13:32;;;;;;;110.03;28.10;;;6.60;99.90;;;;;;4997436;28;20092;-89
2022/01/13 11:15:58;;;;;;;125.53;30.40;;;6.60;99.90;;;;;;5012889;28;20117;-90
2022/01/13 11:18:28;;;;;;;94.65;24.58;;;6.60;99.90;;;;;;4995864;28;20069;-89
2022/01/13 11:20:54;;;;;;;100.43;26.38;;;6.70;99.90;;;;;;4994572;28;20053;-89
2022/01/13 11:23:21;;;;;;;109.53;25.05;;;6.60;99.90;;;;;;5009660;28;20468;-91
2022/01/13 11:25:52;;;;;;;107.53;27.10;;;6.60;99.90;;;;;;5010180;28;20120;-92
2022/01/13 11:28:19;;;;;;;102.65;25.23;;;6.70;99.90;;;;;;4995307;28;20049;-92
2022/01/13 11:30:49;;;;;;;79.13;23.20;;;6.60;99.90;;;;;;5013006;28;20531;-91
2022/01/13 11:33:15;;;;;;;81.90;22.27;;;6.70;99.90;;;;;;5010834;28;20135;-89
2022/01/13 11:35:48;;;;;;;87.40;21.50;;;6.70;99.90;;;;;;4994281;28;20049;-91
2022/01/13 11:38:19;;;;;;;108.97;28.67;;;6.70;99.90;;;;;;4996058;28;20092;-90
2022/01/13 11:41:06;;;;;;;97.88;27.45;;;6.80;99.90;;;;;;4995970;28;20057;-92
2022/01/13 11:43:38;;;;;;;109.20;26.45;;;6.80;99.90;;;;;;4993427;28;20030;-90
2022/01/13 11:46:21;;;;;;;124.10;30.80;;;6.80;99.90;;;;;;4994587;28;20045;-91
2022/01/13 11:49:06;;;;;;;98.32;27.83;;;6.80;99.90;;;;;;5009767;28;20085;-90
2022/01/13 11:51:44;;;;;;;98.47;26.40;;;6.80;99.90;;;;;;5009404;28;20046;-91
2022/01/13 11:54:10;;;;;;;74.40;23.13;;;6.80;99.90;;;;;;4992919;28;20081;-90
2022/01/13 11:56:36;;;;;;;51.25;19.45;;;6.90;99.90;;;;;;5008896;28;20056;-90
2022/01/13 11:59:10;;;;;;;69.97;21.92;;;6.90;99.90;;;;;;5008300;28;20042;-90
2022/01/13 12:01:36;;;;;;;83.47;24.52;;;6.90;99.90;;;;;;4992032;28;20050;-90
2022/01/13 12:04:09;;;;;;;76.28;22.15;;;6.90;99.90;;;;;;5008889;28;20042;-90
2022/01/13 12:06:44;;;;;;;71.47;21.92;;;7.10;99.90;;;;;;4994165;28;20042;-90
2022/01/13 12:09:22;;;;;;;70.78;22.27;;;6.90;99.90;;;;;;5013388;28;20073;-90
2022/01/13 12:11:55;;;;;;;75.53;22.90;;;6.90;99.90;;;;;;5010912;28;20500;-90
2022/01/13 12:14:24;;;;;;;79.72;23.40;;;6.90;99.90;;;;;;5011552;28;20118;-90
2022/01/13 12:16:58;;;;;;;89.00;27.38;;;6.90;99.90;;;;;;4994541;28;20136;-90
2022/01/13 12:19:29;;;;;;;84.00;25.98;;;6.90;99.90;;;;;;5012354;28;20420;-90
2022/01/13 12:22:04;;;;;;;78.55;24.92;;;6.90;99.90;;;;;;5012526;28;20045;-90
2022/01/13 12:24:48;;;;;;;72.38;23.20;;;6.90;99.90;;;;;;4995224;28;20617;-90
2022/01/13 12:27:16;;;;;;;91.65;26.65;;;6.90;99.90;;;;;;5011381;28;20052;-91
2022/01/13 12:30:11;;;;;;;70.65;24.55;;;6.90;99.90;;;;;;5012548;28;20084;-91
2022/01/13 12:32:40;;;;;;;85.78;26.70;;;6.90;99.90;;;;;;5014417;28;20089;-91
2022/01/13 12:35:14;;;;;;;79.07;26.80;;;6.80;99.90;;;;;;4996942;28;20061;-90
2022/01/13 12:37:40;;;;;;;80.57;26.10;;;6.90;99.90;;;;;;5013301;28;20050;-91
2022/01/13 12:40:23;;;;;;;95.25;28.98;;;6.90;99.90;;;;;;5015032;28;20053;-90
2022/01/13 12:42:52;;;;;;;85.32;26.67;;;6.90;99.90;;;;;;5013840;28;20053;-91
2022/01/13 12:45:29;;;;;;;104.20;30.10;;;7.00;99.90;;;;;;5016151;28;20042;-91
2022/01/13 12:48:05;;;;;;;79.20;27.77;;;7.00;99.90;;;;;;5015835;28;20060;-91
2022/01/13 12:50:43;;;;;;;86.85;27.58;;;7.00;99.90;;;;;;5014470;28;20073;-90
2022/01/13 12:53:10;;;;;;;68.00;26.80;;;7.00;99.90;;;;;;5014162;28;20046;-91
2022/01/13 12:55:38;;;;;;;57.67;21.60;;;7.00;99.90;;;;;;5014820;28;20054;-90
2022/01/13 12:58:05;;;;;;;59.35;25.23;;;7.00;99.90;;;;;;5013437;28;20120;-91